Time;durP1;ratioP1;P1;durP2;ratioP2;P2;SDS_P1;SDS_P2;PMS_P1;PMS_P2;Temp;Humidity;BMP_temperature;BMP_pressure;BME280_temperature;BME280_humidity;BME280_pressure;Samples;Min_cycle;Max_cycle;Signal;HPM_P1;HPM_P2
2022/12/04 00:00:19;;;;;;;63.00;30.97;;;3.60;99.90;;;;;;10135310;29;20251;-87
2022/12/04 00:05:21;;;;;;;55.97;30.73;;;;;;;;;;10103208;29;20235;-89
2022/12/04 00:10:24;;;;;;;62.10;32.67;;;5.40;99.90;;;;;;10096673;29;20222;-88
2022/12/04 00:15:26;;;;;;;55.40;29.97;;;6.60;99.90;;;;;;10125573;29;20749;-89
2022/12/04 00:20:29;;;;;;;47.27;27.00;;;7.60;99.90;;;;;;10130640;29;20207;-88
2022/12/04 00:25:32;;;;;;;52.03;28.07;;;8.20;99.90;;;;;;10132737;29;20295;-88
2022/12/04 00:30:43;;;;;;;57.23;30.63;;;8.40;99.90;;;;;;10134621;29;20253;-88
2022/12/04 00:35:46;;;;;;;52.17;28.67;;;8.30;99.90;;;;;;10126897;29;20224;-89
2022/12/04 00:40:50;;;;;;;53.53;29.50;;;8.40;99.90;;;;;;10122505;29;20210;-87
2022/12/04 00:45:52;;;;;;;52.00;28.50;;;8.30;99.90;;;;;;10134086;29;20235;-88
2022/12/04 00:50:57;;;;;;;46.93;28.00;;;8.80;99.90;;;;;;10133624;29;20266;-88
2022/12/04 00:56:03;;;;;;;55.80;29.53;;;8.60;99.90;;;;;;10133821;29;20220;-87
2022/12/04 01:01:09;;;;;;;56.87;31.10;;;8.60;99.90;;;;;;10133663;29;20204;-87
2022/12/04 01:06:23;;;;;;;52.13;28.40;;;8.50;99.90;;;;;;10130096;29;20235;-87
2022/12/04 01:11:27;;;;;;;54.83;29.53;;;8.60;99.90;;;;;;10129837;29;20235;-87
2022/12/04 01:16:35;;;;;;;57.47;31.53;;;8.60;99.90;;;;;;10128481;29;20735;-88
2022/12/04 01:21:39;;;;;;;60.93;29.63;;;8.30;99.90;;;;;;10128494;29;20232;-87
2022/12/04 01:26:41;;;;;;;46.73;26.60;;;8.40;99.90;;;;;;10136008;29;20705;-89
2022/12/04 01:31:43;;;;;;;48.37;26.47;;;8.20;99.90;;;;;;10136143;29;20231;-88
2022/12/04 01:36:47;;;;;;;50.40;26.87;;;8.10;99.90;;;;;;10137101;29;20286;-87
2022/12/04 01:41:49;;;;;;;44.27;25.50;;;8.80;99.90;;;;;;10135587;29;20246;-88
2022/12/04 01:46:57;;;;;;;53.83;28.03;;;8.70;99.90;;;;;;10135687;29;20235;-87
2022/12/04 01:52:05;;;;;;;75.30;36.77;;;8.50;99.90;;;;;;10136731;29;20239;-88
2022/12/04 01:57:11;;;;;;;51.97;28.23;;;8.40;99.90;;;;;;10110303;29;20240;-88
2022/12/04 02:02:18;;;;;;;57.73;29.63;;;8.70;99.90;;;;;;10097501;29;20247;-88
2022/12/04 02:07:20;;;;;;;54.57;29.03;;;9.00;99.90;;;;;;10127657;29;20263;-89
2022/12/04 02:12:37;;;;;;;47.63;25.47;;;8.50;99.90;;;;;;10135522;29;20704;-88
2022/12/04 02:18:04;;;;;;;56.13;29.17;;;8.20;99.90;;;;;;10135307;29;20264;-88
2022/12/04 02:23:32;;;;;;;51.47;26.77;;;8.60;99.90;;;;;;10134944;29;20303;-87
2022/12/04 02:28:56;;;;;;;53.67;27.50;;;8.70;99.90;;;;;;10135231;29;20295;-89
2022/12/04 02:34:04;;;;;;;36.77;20.87;;;8.50;99.90;;;;;;10132311;29;20263;-87
2022/12/04 02:39:22;;;;;;;45.00;25.87;;;8.80;99.90;;;;;;10134675;29;20239;-89
2022/12/04 02:44:33;;;;;;;45.43;24.77;;;8.80;99.90;;;;;;10134364;29;20266;-88
2022/12/04 02:49:45;;;;;;;45.60;24.83;;;8.70;99.90;;;;;;10134888;29;20240;-88
2022/12/04 02:54:57;;;;;;;49.17;25.53;;;8.90;99.90;;;;;;10134002;29;20247;-88
2022/12/04 03:00:04;;;;;;;38.67;23.60;;;8.80;99.90;;;;;;10134079;29;20235;-89
2022/12/04 03:05:13;;;;;;;50.87;27.63;;;9.20;99.90;;;;;;10133975;29;20706;-88
2022/12/04 03:10:31;;;;;;;51.37;28.57;;;9.20;99.90;;;;;;10133597;29;20635;-87
2022/12/04 03:15:43;;;;;;;49.67;28.00;;;8.90;99.90;;;;;;10116177;29;20341;-87
2022/12/04 03:20:51;;;;;;;48.03;25.83;;;8.90;99.90;;;;;;10121675;29;20224;-88
2022/12/04 03:26:10;;;;;;;50.93;25.27;;;8.70;99.90;;;;;;10111947;29;20236;-87
2022/12/04 03:31:18;;;;;;;51.63;25.93;;;8.60;99.90;;;;;;10118831;29;20230;-88
2022/12/04 03:36:26;;;;;;;49.90;24.37;;;8.30;99.90;;;;;;10111516;29;20402;-87
2022/12/04 03:41:54;;;;;;;62.10;31.87;;;8.10;99.90;;;;;;10113846;29;20271;-89
2022/12/04 03:47:03;;;;;;;44.10;23.20;;;7.80;99.90;;;;;;10124293;29;20296;-88
2022/12/04 03:52:27;;;;;;;39.13;22.47;;;7.90;99.90;;;;;;10106941;29;20269;-87
2022/12/04 03:57:36;;;;;;;43.90;25.07;;;8.40;99.90;;;;;;10115285;29;20240;-88
2022/12/04 04:03:02;;;;;;;38.90;23.37;;;8.50;99.90;;;;;;10109021;29;20674;-88
2022/12/04 04:08:26;;;;;;;41.37;21.77;;;8.90;99.90;;;;;;10115678;29;20228;-88
2022/12/04 04:24:35;;;;;;;51.70;27.70;;;8.40;99.90;;;;;;10105718;29;20272;-87
2022/12/04 04:29:38;;;;;;;48.80;24.87;;;8.20;99.90;;;;;;10135815;29;20303;-87
2022/12/04 04:34:40;;;;;;;49.67;28.60;;;8.40;99.90;;;;;;10089608;29;20268;-87
2022/12/04 04:39:55;;;;;;;44.20;23.73;;;8.50;99.90;;;;;;10100680;29;20236;-87
2022/12/04 04:45:18;;;;;;;42.30;25.10;;;8.30;99.90;;;;;;10121065;29;20737;-87
2022/12/04 04:50:21;;;;;;;41.63;23.63;;;8.60;99.90;;;;;;10108972;29;20280;-87
2022/12/04 04:55:25;;;;;;;58.67;30.57;;;8.80;99.90;;;;;;10136067;29;20277;-87
2022/12/04 05:00:27;;;;;;;37.37;21.13;;;8.60;99.90;;;;;;10096324;29;20236;-86
2022/12/04 05:05:30;;;;;;;48.73;27.13;;;9.00;99.90;;;;;;10091434;29;20627;-87
2022/12/04 05:10:32;;;;;;;48.77;26.07;;;8.80;99.90;;;;;;10111866;29;20247;-87
2022/12/04 05:15:35;;;;;;;36.97;22.83;;;8.70;99.90;;;;;;10127174;29;20899;-87
2022/12/04 05:20:38;;;;;;;33.93;19.33;;;8.60;99.90;;;;;;10128725;29;20224;-87
2022/12/04 05:25:40;;;;;;;36.00;22.60;;;8.50;99.90;;;;;;10128727;29;20698;-89
2022/12/04 05:30:43;;;;;;;36.47;20.67;;;9.40;99.90;;;;;;10127302;29;20250;-89
2022/12/04 05:36:02;;;;;;;37.03;21.03;;;9.00;99.90;;;;;;10128588;29;20287;-89
2022/12/04 05:41:06;;;;;;;39.30;22.93;;;9.00;99.90;;;;;;10128998;29;20626;-87
2022/12/04 05:46:09;;;;;;;45.53;25.63;;;9.20;99.90;;;;;;10128340;29;20278;-88
2022/12/04 05:51:12;;;;;;;40.07;23.33;;;8.60;99.90;;;;;;10128702;29;20244;-87
2022/12/04 05:56:14;;;;;;;45.40;24.67;;;9.00;99.90;;;;;;10128179;29;20252;-89
2022/12/04 06:01:20;;;;;;;38.80;20.77;;;;;;;;;;10128581;29;20236;-88
2022/12/04 06:06:24;;;;;;;47.00;25.50;;;8.80;99.90;;;;;;10128182;29;20232;-87
2022/12/04 06:11:29;;;;;;;40.07;22.10;;;8.80;99.90;;;;;;10133357;29;20311;-87
2022/12/04 06:16:38;;;;;;;42.07;25.50;;;8.80;99.90;;;;;;10112958;29;20737;-88
2022/12/04 06:21:42;;;;;;;39.90;21.80;;;8.90;99.90;;;;;;10096509;29;20265;-89
2022/12/04 06:26:44;;;;;;;36.30;20.90;;;9.30;99.90;;;;;;10095366;29;20248;-88
2022/12/04 06:32:07;;;;;;;37.13;22.03;;;9.10;99.90;;;;;;10124249;29;20702;-88
2022/12/04 06:37:10;;;;;;;38.27;22.67;;;9.00;99.90;;;;;;10132823;29;20311;-88
2022/12/04 06:42:12;;;;;;;40.03;23.90;;;9.20;99.90;;;;;;10148591;29;20322;-88
2022/12/04 06:47:14;;;;;;;43.77;23.40;;;9.00;99.90;;;;;;10171395;29;20637;-88
2022/12/04 06:52:17;;;;;;;36.77;21.43;;;8.70;99.90;;;;;;10136949;29;20239;-89
2022/12/04 06:57:19;;;;;;;41.40;22.93;;;8.70;99.90;;;;;;10132705;29;20323;-88
2022/12/04 07:02:22;;;;;;;40.10;21.80;;;8.70;99.90;;;;;;10134218;29;20288;-89
2022/12/04 07:07:24;;;;;;;31.07;17.57;;;8.50;99.90;;;;;;10132852;29;20272;-88
2022/12/04 07:12:27;;;;;;;34.70;20.73;;;9.00;99.90;;;;;;10131685;29;20309;-88
2022/12/04 07:17:29;;;;;;;30.17;18.00;;;8.90;99.90;;;;;;10133324;29;20638;-89
2022/12/04 07:22:32;;;;;;;29.27;16.90;;;9.10;99.90;;;;;;10131956;29;20235;-89
2022/12/04 07:27:34;;;;;;;39.47;21.37;;;9.20;99.90;;;;;;10132081;29;20708;-88
2022/12/04 07:32:37;;;;;;;40.73;22.07;;;9.30;99.90;;;;;;10132155;29;20243;-88
2022/12/04 07:37:40;;;;;;;32.60;18.67;;;9.00;99.90;;;;;;10132847;29;20358;-89
2022/12/04 07:42:42;;;;;;;33.30;17.83;;;9.30;99.90;;;;;;10130899;29;20315;-88
2022/12/04 07:47:44;;;;;;;35.87;21.03;;;8.80;99.90;;;;;;10130599;29;20240;-88
2022/12/04 07:52:47;;;;;;;32.07;19.27;;;9.00;99.90;;;;;;10110857;29;20252;-86
2022/12/04 07:57:49;;;;;;;34.90;19.00;;;8.90;99.90;;;;;;10105049;29;20671;-86
2022/12/04 08:02:52;;;;;;;40.00;20.90;;;8.90;99.90;;;;;;10136906;29;20707;-88
2022/12/04 08:07:54;;;;;;;31.90;18.70;;;9.00;99.90;;;;;;10130378;29;20690;-86
2022/12/04 08:12:56;;;;;;;27.37;16.90;;;8.90;99.90;;;;;;10130913;29;20240;-89
2022/12/04 08:17:59;;;;;;;31.23;18.70;;;8.90;99.90;;;;;;10115018;29;20672;-88
2022/12/04 08:23:01;;;;;;;28.90;17.17;;;9.10;99.90;;;;;;10129308;29;20601;-87
2022/12/04 08:28:05;;;;;;;34.37;19.97;;;8.80;99.90;;;;;;10130677;29;20251;-88
2022/12/04 08:33:07;;;;;;;31.60;18.73;;;9.50;99.90;;;;;;10102362;29;20304;-87
2022/12/04 08:38:09;;;;;;;34.40;19.90;;;9.70;99.90;;;;;;10131004;29;20303;-87
2022/12/04 08:43:12;;;;;;;36.10;21.37;;;9.50;99.90;;;;;;10130313;29;20291;-87
2022/12/04 08:48:14;;;;;;;28.23;16.90;;;9.30;99.90;;;;;;10128875;29;20242;-87
2022/12/04 08:53:17;;;;;;;32.37;20.13;;;9.20;99.90;;;;;;10135391;29;20302;-88
2022/12/04 08:58:19;;;;;;;32.93;19.97;;;9.50;99.90;;;;;;10128441;29;20259;-88
2022/12/04 09:03:21;;;;;;;35.13;19.77;;;9.00;99.90;;;;;;10128790;29;20231;-88
2022/12/04 09:08:34;;;;;;;40.57;24.20;;;8.80;99.90;;;;;;10129939;29;20238;-88
2022/12/04 09:13:37;;;;;;;36.27;20.67;;;8.40;99.90;;;;;;10127145;29;20244;-88
2022/12/04 09:18:40;;;;;;;31.30;18.27;;;8.20;99.90;;;;;;10128739;29;20250;-87
2022/12/04 09:23:44;;;;;;;33.53;18.63;;;8.40;99.90;;;;;;10111766;29;20244;-87
2022/12/04 09:28:48;;;;;;;26.87;16.77;;;9.40;99.90;;;;;;10127695;29;20251;-87
2022/12/04 09:33:51;;;;;;;23.73;14.97;;;9.40;99.90;;;;;;10112696;29;20678;-87
2022/12/04 09:38:54;;;;;;;44.20;24.87;;;9.40;99.90;;;;;;10126840;29;20757;-87
2022/12/04 09:44:03;;;;;;;28.13;17.73;;;9.50;99.90;;;;;;10127101;29;20308;-85
2022/12/04 09:49:13;;;;;;;31.50;18.70;;;9.10;99.90;;;;;;10134595;29;20288;-86
2022/12/04 09:54:18;;;;;;;29.23;17.80;;;9.00;99.90;;;;;;10135069;29;20256;-86
2022/12/04 09:59:25;;;;;;;24.57;14.83;;;9.20;99.90;;;;;;10134709;29;20246;-86
2022/12/04 10:04:27;;;;;;;29.30;17.30;;;9.30;99.90;;;;;;10128034;29;20243;-86
2022/12/04 10:09:51;;;;;;;22.90;13.80;;;9.10;99.90;;;;;;10105951;29;20649;-86
2022/12/04 10:15:19;;;;;;;30.97;18.17;;;9.60;99.90;;;;;;10105039;29;20280;-86
2022/12/04 10:20:37;;;;;;;29.87;16.43;;;9.80;99.90;;;;;;10118152;29;20261;-86
2022/12/04 10:25:40;;;;;;;29.33;19.13;;;10.00;99.90;;;;;;10121770;29;20625;-85
2022/12/04 10:30:46;;;;;;;30.57;17.23;;;9.90;99.90;;;;;;10110230;29;20670;-85
2022/12/04 10:35:51;;;;;;;33.77;19.23;;;10.10;99.90;;;;;;10132268;29;20286;-85
2022/12/04 10:41:04;;;;;;;27.90;16.03;;;10.00;99.90;;;;;;10132030;29;20697;-87
2022/12/04 10:46:25;;;;;;;33.20;19.17;;;9.80;99.90;;;;;;10116258;29;20310;-86
2022/12/04 10:51:34;;;;;;;24.27;14.77;;;10.10;99.90;;;;;;10133863;29;20293;-87
2022/12/04 10:56:49;;;;;;;30.80;17.53;;;10.00;99.90;;;;;;10132438;29;20306;-87
2022/12/04 11:02:03;;;;;;;38.90;22.43;;;9.90;99.90;;;;;;10133332;29;20282;-85
2022/12/04 11:07:19;;;;;;;44.60;26.13;;;9.90;99.90;;;;;;10131903;29;20238;-85
2022/12/04 11:12:22;;;;;;;32.63;19.53;;;10.10;99.90;;;;;;10132638;29;20255;-85
2022/12/04 11:17:25;;;;;;;32.10;20.60;;;10.40;99.90;;;;;;10120070;29;20335;-85
2022/12/04 11:22:27;;;;;;;30.03;16.07;;;10.10;99.90;;;;;;10130024;29;20758;-86
2022/12/04 11:27:34;;;;;;;32.23;17.97;;;9.90;99.90;;;;;;10130934;29;20240;-86
2022/12/04 11:32:37;;;;;;;50.10;29.30;;;10.30;99.90;;;;;;10131146;29;20283;-86
2022/12/04 11:37:40;;;;;;;32.97;15.63;;;6.70;99.90;;;;;;10128224;29;20969;-86
2022/12/04 11:43:03;;;;;;;47.63;24.80;;;5.90;99.90;;;;;;10130744;29;20680;-86
2022/12/04 11:48:15;;;;;;;44.20;22.03;;;7.70;99.90;;;;;;10130415;29;20240;-86
2022/12/04 11:53:25;;;;;;;37.97;22.53;;;8.30;99.90;;;;;;10131836;29;20247;-87
2022/12/04 11:58:30;;;;;;;44.90;24.37;;;9.00;99.90;;;;;;10131417;29;20262;-87
2022/12/04 12:04:06;;;;;;;39.33;22.30;;;8.90;99.90;;;;;;10131718;29;20235;-87
2022/12/04 12:09:30;;;;;;;39.73;23.57;;;8.90;99.90;;;;;;10127399;29;20242;-87
2022/12/04 12:14:41;;;;;;;29.00;16.60;;;8.50;99.90;;;;;;10127143;29;20649;-86
2022/12/04 12:20:13;;;;;;;37.10;19.10;;;9.30;99.90;;;;;;10127775;29;20259;-86
2022/12/04 12:25:28;;;;;;;55.13;32.77;;;9.70;99.90;;;;;;10129223;29;20325;-88
2022/12/04 12:31:17;;;;;;;63.63;38.83;;;7.40;99.90;;;;;;10128795;29;20488;-86
2022/12/04 12:36:22;;;;;;;71.57;36.27;;;5.10;99.90;;;;;;10131959;29;20259;-85
2022/12/04 12:41:37;;;;;;;67.30;36.47;;;4.20;99.90;;;;;;10123338;29;20232;-85
2022/12/04 12:46:57;;;;;;;74.03;36.47;;;3.70;99.90;;;;;;10116507;29;20259;-83
2022/12/04 12:52:13;;;;;;;70.60;37.93;;;3.40;99.90;;;;;;10115260;29;20697;-85
2022/12/04 12:57:17;;;;;;;39.77;19.87;;;3.60;99.90;;;;;;10108516;29;20268;-84
2022/12/04 13:02:28;;;;;;;73.47;39.17;;;3.40;99.90;;;;;;10124396;29;20228;-84
2022/12/04 13:07:40;;;;;;;77.53;40.93;;;;;;;;;;10120415;29;20707;-84
2022/12/04 13:12:53;;;;;;;84.77;47.40;;;3.00;99.90;;;;;;10116655;29;20244;-84
2022/12/04 13:17:57;;;;;;;165.77;92.30;;;2.90;99.90;;;;;;10128543;29;20333;-85
2022/12/04 13:23:36;;;;;;;70.17;35.83;;;2.90;99.90;;;;;;10134950;29;20302;-85
2022/12/04 13:28:59;;;;;;;46.60;20.73;;;2.80;99.90;;;;;;10136824;29;20236;-86
2022/12/04 13:34:26;;;;;;;53.23;27.63;;;4.60;99.90;;;;;;10136185;29;20244;-85
2022/12/04 13:40:03;;;;;;;54.00;26.80;;;5.50;99.90;;;;;;10136169;29;20307;-85
2022/12/04 13:45:10;;;;;;;87.23;40.00;;;6.90;99.90;;;;;;10135238;29;20268;-84
2022/12/04 13:50:19;;;;;;;25.17;15.03;;;7.90;99.90;;;;;;10134933;29;20241;-84
2022/12/04 13:55:24;;;;;;;26.23;14.03;;;8.50;99.90;;;;;;10126391;29;20317;-83
2022/12/04 14:00:35;;;;;;;25.40;14.47;;;9.40;99.90;;;;;;10126036;29;20273;-84
2022/12/04 14:05:42;;;;;;;32.40;17.77;;;9.70;99.90;;;;;;10134403;29;20685;-90
2022/12/04 14:10:59;;;;;;;39.93;23.30;;;10.10;99.90;;;;;;10112200;29;20236;-84
2022/12/04 14:16:25;;;;;;;38.27;21.67;;;10.30;99.90;;;;;;10096317;29;20277;-84
2022/12/04 14:21:45;;;;;;;38.33;23.07;;;10.50;99.90;;;;;;10104965;29;20272;-84
2022/12/04 14:26:49;;;;;;;41.00;24.50;;;10.40;99.90;;;;;;10130800;29;20310;-84
2022/12/04 14:32:22;;;;;;;38.20;22.67;;;10.30;99.90;;;;;;10133940;29;20239;-84
2022/12/04 14:37:35;;;;;;;39.43;21.20;;;10.30;99.90;;;;;;10134309;29;20259;-84
2022/12/04 14:42:38;;;;;;;43.23;25.17;;;10.30;99.90;;;;;;10132893;29;20263;-84
2022/12/04 14:47:44;;;;;;;36.03;20.47;;;10.20;99.90;;;;;;10132601;29;20306;-84
2022/12/04 14:52:59;;;;;;;45.30;27.10;;;9.60;99.90;;;;;;10134048;29;20707;-84
2022/12/04 14:58:30;;;;;;;39.70;22.17;;;10.00;99.90;;;;;;10133810;29;20276;-84
2022/12/04 15:03:40;;;;;;;39.87;21.57;;;10.30;99.90;;;;;;10131823;29;20279;-84
2022/12/04 15:12:32;;;;;;;110.47;47.87;;;10.30;99.90;;;;;;10132242;29;20244;-84
2022/12/04 15:14:16;;;;;;;37.60;21.80;;;10.00;99.90;;;;;;10132398;29;20271;-85
2022/12/04 15:19:19;;;;;;;37.63;23.03;;;10.10;99.90;;;;;;10132306;29;20270;-85
2022/12/04 15:24:24;;;;;;;37.73;22.97;;;10.50;99.90;;;;;;10131025;29;20311;-84
2022/12/04 15:29:30;;;;;;;39.57;24.87;;;10.20;99.90;;;;;;10132146;29;20295;-84
2022/12/04 15:34:42;;;;;;;41.13;26.40;;;10.20;99.90;;;;;;10131146;29;20297;-85
2022/12/04 15:39:45;;;;;;;83.23;40.77;;;9.90;99.90;;;;;;10130159;29;20284;-85
2022/12/04 15:45:00;;;;;;;34.20;22.70;;;9.80;99.90;;;;;;10129430;29;20263;-85
2022/12/04 15:50:15;;;;;;;38.27;22.57;;;10.00;99.90;;;;;;10130565;29;20267;-84
2022/12/04 15:55:20;;;;;;;41.17;22.07;;;9.70;99.90;;;;;;10130205;29;20480;-85
2022/12/04 16:00:36;;;;;;;31.97;19.60;;;8.10;99.90;;;;;;10111995;29;20239;-85
2022/12/04 16:05:38;;;;;;;35.37;22.03;;;9.60;99.90;;;;;;10113604;29;20291;-86
2022/12/04 16:10:41;;;;;;;38.17;22.07;;;10.20;99.90;;;;;;10118397;29;20292;-85
2022/12/04 16:15:43;;;;;;;34.83;18.70;;;10.10;99.90;;;;;;10112285;29;20236;-85
2022/12/04 16:20:46;;;;;;;29.43;17.43;;;10.20;99.90;;;;;;10104338;29;20303;-85
2022/12/04 16:25:49;;;;;;;32.70;17.57;;;10.30;99.90;;;;;;10129423;29;20295;-85
2022/12/04 16:30:55;;;;;;;31.17;19.67;;;10.40;99.90;;;;;;10123317;29;20248;-85
2022/12/04 16:35:57;;;;;;;39.17;19.70;;;10.50;99.90;;;;;;9447936;29;10000722;-85
2022/12/04 16:41:00;;;;;;;30.20;16.87;;;10.70;99.90;;;;;;10125763;29;20299;-87
2022/12/04 16:46:02;;;;;;;49.57;33.27;;;10.60;99.90;;;;;;10124369;29;20335;-85
2022/12/04 16:51:04;;;;;;;28.07;16.13;;;10.50;99.90;;;;;;10121795;29;20698;-85
2022/12/04 16:56:08;;;;;;;34.67;20.67;;;11.00;99.90;;;;;;10124461;29;20248;-85
2022/12/04 17:01:22;;;;;;;28.47;16.23;;;10.80;99.90;;;;;;10102990;29;20222;-85
2022/12/04 17:06:24;;;;;;;42.47;23.27;;;11.00;99.90;;;;;;10121265;29;20299;-85
2022/12/04 17:11:27;;;;;;;32.30;19.27;;;10.80;99.90;;;;;;10124508;29;20580;-85
2022/12/04 17:16:29;;;;;;;38.00;21.30;;;11.00;99.90;;;;;;10126439;29;20269;-85
2022/12/04 17:21:33;;;;;;;33.23;18.70;;;10.80;99.90;;;;;;10126233;29;20240;-85
2022/12/04 17:26:35;;;;;;;26.90;16.90;;;10.20;99.90;;;;;;10124797;29;20477;-85
2022/12/04 17:31:38;;;;;;;32.87;19.27;;;10.40;99.90;;;;;;10125769;29;20291;-85
2022/12/04 17:36:40;;;;;;;30.67;20.47;;;10.60;99.90;;;;;;10124496;29;20306;-85
2022/12/04 17:41:43;;;;;;;32.10;17.47;;;10.80;99.90;;;;;;10123967;29;20246;-85
2022/12/04 17:46:45;;;;;;;38.73;19.90;;;10.90;99.90;;;;;;10115318;29;20341;-86
2022/12/04 17:51:48;;;;;;;32.20;18.20;;;10.90;99.90;;;;;;10119716;29;20283;-84
2022/12/04 17:56:50;;;;;;;30.53;20.03;;;10.90;99.90;;;;;;10089166;29;20319;-84
2022/12/04 18:01:59;;;;;;;33.17;19.17;;;11.10;99.90;;;;;;10123928;29;20299;-85
2022/12/04 18:07:01;;;;;;;31.27;15.87;;;11.10;99.90;;;;;;10128280;29;20731;-85
2022/12/04 18:12:04;;;;;;;32.13;17.07;;;10.90;99.90;;;;;;10107634;29;20327;-84
2022/12/04 18:17:07;;;;;;;34.10;18.07;;;10.40;99.90;;;;;;10134568;29;20326;-85
2022/12/04 18:22:09;;;;;;;34.33;16.93;;;10.10;99.90;;;;;;10114849;29;20296;-84
2022/12/04 18:27:12;;;;;;;28.83;16.67;;;10.60;99.90;;;;;;10121551;29;20301;-84
2022/12/04 18:32:15;;;;;;;41.30;21.60;;;10.60;99.90;;;;;;10135064;29;20674;-85
2022/12/04 18:37:18;;;;;;;28.80;17.07;;;10.30;99.90;;;;;;10133087;29;20251;-84
2022/12/04 18:42:20;;;;;;;33.97;17.37;;;11.00;99.90;;;;;;10133347;29;20267;-84
2022/12/04 18:47:22;;;;;;;31.80;19.23;;;10.80;99.90;;;;;;10134996;29;20235;-84
2022/12/04 18:52:25;;;;;;;28.67;14.93;;;10.60;99.90;;;;;;10118986;29;20347;-84
2022/12/04 18:57:28;;;;;;;42.70;22.27;;;;;;;;;;10119671;29;20300;-84
2022/12/04 19:02:30;;;;;;;37.80;21.30;;;11.20;99.90;;;;;;10116728;29;20700;-84
2022/12/04 19:07:33;;;;;;;36.43;20.03;;;11.70;99.90;;;;;;10111487;29;20657;-84
2022/12/04 19:12:35;;;;;;;44.03;22.40;;;11.80;99.90;;;;;;9778876;29;9999842;-85
2022/12/04 19:17:38;;;;;;;34.60;18.87;;;11.10;97.80;;;;;;10090788;29;20264;-84
2022/12/04 19:22:40;;;;;;;40.20;22.00;;;10.90;99.90;;;;;;10107152;29;20748;-84
2022/12/04 19:27:42;;;;;;;34.43;18.30;;;10.40;99.90;;;;;;10102372;29;20243;-84
2022/12/04 19:32:45;;;;;;;34.13;19.17;;;10.30;99.90;;;;;;10110968;29;20263;-84
2022/12/04 19:37:53;;;;;;;45.83;25.20;;;10.40;99.90;;;;;;10127016;29;20366;-84
2022/12/04 19:42:56;;;;;;;43.80;21.43;;;10.30;99.60;;;;;;10127895;29;20338;-84
2022/12/04 19:48:04;;;;;;;42.47;20.67;;;9.90;99.90;;;;;;10126454;29;20682;-84
2022/12/04 19:53:07;;;;;;;36.07;18.83;;;10.20;99.90;;;;;;10128312;29;20288;-83
2022/12/04 19:58:09;;;;;;;36.47;17.83;;;10.10;99.90;;;;;;10126148;29;20291;-84
2022/12/04 20:03:12;;;;;;;37.63;20.87;;;9.90;99.90;;;;;;10107962;29;20645;-83
2022/12/04 20:08:14;;;;;;;39.17;17.23;;;9.60;99.90;;;;;;10106604;29;20238;-84
2022/12/04 20:13:17;;;;;;;40.17;22.93;;;9.40;99.90;;;;;;10129034;29;20839;-82
2022/12/04 20:18:19;;;;;;;38.93;21.83;;;9.60;99.90;;;;;;10104404;29;20272;-84
2022/12/04 20:23:22;;;;;;;41.60;22.70;;;9.40;99.90;;;;;;10127608;29;20307;-83
2022/12/04 20:28:25;;;;;;;47.50;25.93;;;10.10;99.90;;;;;;10127153;29;20721;-84
2022/12/04 20:33:27;;;;;;;42.50;21.80;;;9.30;99.90;;;;;;10127793;29;20276;-84
2022/12/04 20:38:30;;;;;;;30.83;17.87;;;8.60;99.90;;;;;;10117050;29;20339;-84
2022/12/04 20:43:33;;;;;;;31.87;18.73;;;8.70;99.90;;;;;;10125705;29;20755;-84
2022/12/04 20:48:36;;;;;;;32.83;18.20;;;9.00;99.90;;;;;;10125998;29;20310;-84
2022/12/04 20:53:39;;;;;;;32.30;18.47;;;9.50;99.90;;;;;;10127349;29;20261;-84
2022/12/04 20:58:41;;;;;;;33.97;18.40;;;9.90;99.90;;;;;;10127172;29;20262;-84
2022/12/04 21:03:45;;;;;;;40.53;20.70;;;9.60;99.90;;;;;;10110560;29;20233;-84
2022/12/04 21:08:51;;;;;;;35.97;20.43;;;9.30;99.90;;;;;;10124704;29;20303;-84
2022/12/04 21:19:19;;;;;;;28.73;16.87;;;9.80;99.90;;;;;;10112584;29;20759;-84
2022/12/04 21:24:23;;;;;;;37.20;20.37;;;9.40;99.90;;;;;;10131879;29;20291;-84
2022/12/04 21:29:25;;;;;;;39.80;21.83;;;8.80;99.90;;;;;;10123794;29;20245;-84
2022/12/04 21:34:27;;;;;;;27.87;15.13;;;8.50;99.90;;;;;;10126529;29;20234;-84
2022/12/04 21:39:30;;;;;;;48.00;26.33;;;8.80;99.90;;;;;;10112626;29;20262;-84
2022/12/04 21:44:33;;;;;;;39.07;20.17;;;9.50;99.90;;;;;;10136237;29;20702;-84
2022/12/04 21:49:35;;;;;;;18.80;11.13;;;9.70;99.90;;;;;;10122560;29;20233;-84
2022/12/04 21:54:38;;;;;;;45.93;22.93;;;9.60;99.90;;;;;;10120724;29;20239;-84
2022/12/04 21:59:40;;;;;;;31.27;15.10;;;9.80;99.90;;;;;;10123645;29;20598;-84
2022/12/04 22:04:43;;;;;;;36.77;19.37;;;9.90;99.90;;;;;;10126379;29;20638;-84
2022/12/04 22:09:45;;;;;;;28.13;16.27;;;9.60;99.90;;;;;;10122490;29;20378;-85
2022/12/04 22:14:47;;;;;;;22.20;10.77;;;9.60;99.90;;;;;;10115347;29;20298;-83
2022/12/04 22:19:50;;;;;;;31.57;16.37;;;10.00;99.90;;;;;;10132467;29;20250;-82
2022/12/04 22:24:52;;;;;;;32.70;18.53;;;9.50;99.90;;;;;;10134956;29;21381;-83
2022/12/04 22:29:55;;;;;;;35.20;18.73;;;10.10;99.90;;;;;;10135063;29;20242;-84
2022/12/04 22:34:57;;;;;;;42.43;21.60;;;9.60;99.90;;;;;;10120855;29;20288;-84
2022/12/04 22:39:59;;;;;;;32.40;15.63;;;9.10;99.90;;;;;;10121483;29;20308;-85
2022/12/04 22:45:03;;;;;;;32.37;18.07;;;10.40;99.90;;;;;;10132604;29;20800;-85
2022/12/04 22:50:06;;;;;;;38.13;19.43;;;10.00;99.90;;;;;;10138903;29;20210;-84
2022/12/04 22:55:09;;;;;;;27.03;14.27;;;9.50;99.90;;;;;;10116207;29;20254;-84
2022/12/04 23:00:11;;;;;;;29.33;14.50;;;9.40;99.90;;;;;;10126091;29;20703;-84
2022/12/04 23:05:14;;;;;;;30.77;17.97;;;10.10;99.90;;;;;;10134026;29;20239;-83
2022/12/04 23:10:17;;;;;;;35.47;18.53;;;10.30;99.90;;;;;;10134770;29;20267;-83
2022/12/04 23:15:19;;;;;;;26.27;15.30;;;9.90;99.90;;;;;;10134630;29;20271;-83
2022/12/04 23:20:24;;;;;;;25.23;14.23;;;10.10;99.90;;;;;;10133637;29;20263;-84
2022/12/04 23:25:26;;;;;;;37.70;19.80;;;10.90;99.90;;;;;;10121278;29;20247;-84
2022/12/04 23:30:28;;;;;;;22.30;13.13;;;10.40;99.90;;;;;;10113823;29;20289;-84
2022/12/04 23:35:36;;;;;;;24.90;13.27;;;10.70;99.90;;;;;;10117737;29;20251;-84
2022/12/04 23:40:38;;;;;;;38.87;21.10;;;10.90;99.90;;;;;;10117415;29;20271;-84
2022/12/04 23:45:42;;;;;;;30.93;16.80;;;10.80;99.90;;;;;;10111999;29;20267;-84
2022/12/04 23:50:44;;;;;;;36.53;17.67;;;9.50;99.90;;;;;;10130989;29;20206;-84
2022/12/04 23:56:01;;;;;;;32.20;16.50;;;9.70;99.90;;;;;;10133356;29;20212;-84
